Time;durP1;ratioP1;P1;durP2;ratioP2;P2;SDS_P1;SDS_P2;PMS_P1;PMS_P2;Temp;Humidity;BMP_temperature;BMP_pressure;BME280_temperature;BME280_humidity;BME280_pressure;Samples;Min_cycle;Max_cycle;Signal;HPM_P1;HPM_P2
2022/06/05 00:01:34;;;;;;;6.28;4.60;;;;;;;22.89;82.03;98319.91;5030672;28;20193;-61
2022/06/05 00:04:08;;;;;;;7.28;4.45;;;;;;;22.75;83.01;98323.34;5032512;28;20173;-60
2022/06/05 00:06:52;;;;;;;7.53;4.53;;;;;;;22.81;82.58;98322.63;5041466;28;20760;-60
2022/06/05 00:09:38;;;;;;;5.68;4.20;;;;;;;22.73;81.13;98326.19;5034345;28;20268;-60
2022/06/05 00:12:13;;;;;;;6.85;4.40;;;;;;;22.72;80.55;98318.47;5037461;28;20227;-59
2022/06/05 00:14:40;;;;;;;5.40;4.20;;;;;;;22.58;80.95;98322.75;5041916;28;20177;-61
2022/06/05 00:17:12;;;;;;;6.45;4.20;;;;;;;22.68;79.83;98315.34;5031588;28;20718;-61
2022/06/05 00:19:41;;;;;;;6.35;4.15;;;;;;;22.55;80.03;98309.91;5036929;28;20666;-60
2022/06/05 00:22:06;;;;;;;4.80;4.30;;;;;;;22.56;81.17;98308.09;5042289;28;20238;-59
2022/06/05 00:24:33;;;;;;;4.45;4.10;;;;;;;22.50;81.12;98314.91;5029014;28;20598;-60
2022/06/05 00:27:25;;;;;;;6.35;4.45;;;;;;;22.65;79.88;98323.63;5036996;28;20188;-59
2022/06/05 00:30:09;;;;;;;7.03;5.03;;;;;;;22.49;81.38;98321.19;5016866;28;20198;-59
2022/06/05 00:32:53;;;;;;;5.93;4.10;;;;;;;22.40;82.50;98330.16;5017197;28;20268;-60
2022/06/05 00:35:21;;;;;;;5.25;4.35;;;;;;;22.26;84.89;98322.25;5029990;28;20557;-59
2022/06/05 00:38:04;;;;;;;6.38;4.88;;;;;;;22.13;85.80;98322.00;5031859;28;20181;-59
2022/06/05 00:41:06;;;;;;;5.72;4.43;;;;;;;22.38;83.16;98326.06;5036928;28;20192;-59
2022/06/05 00:43:31;;;;;;;6.50;4.45;;;;;;;22.57;82.79;98326.38;5037709;28;20164;-60
2022/06/05 00:45:57;;;;;;;5.00;4.47;;;;;;;22.52;83.14;98327.91;5036342;28;20192;-59
2022/06/05 00:48:23;;;;;;;5.88;5.07;;;;;;;22.45;83.73;98329.66;5039626;28;20196;-59
2022/06/05 00:50:49;;;;;;;5.75;5.13;;;;;;;22.43;84.37;98329.00;5020893;28;20248;-59
2022/06/05 00:53:15;;;;;;;6.22;4.57;;;;;;;22.50;84.04;98332.56;5016625;28;20208;-61
2022/06/05 00:55:44;;;;;;;5.45;4.90;;;;;;;22.49;84.00;98331.72;5020622;28;20244;-61
2022/06/05 00:58:10;;;;;;;6.45;4.97;;;;;;;22.05;87.06;98330.00;5031443;28;20222;-60
2022/06/05 01:00:42;;;;;;;6.60;4.50;;;;;;;22.13;86.20;98324.66;5046393;28;20186;-60
2022/06/05 01:03:10;;;;;;;12.85;6.75;;;;;;;21.90;88.20;98321.22;5044062;28;20172;-60
2022/06/05 01:05:36;;;;;;;6.60;5.10;;;;;;;21.84;88.61;98324.59;5049150;28;20201;-60
2022/06/05 01:08:03;;;;;;;6.80;5.07;;;;;;;21.73;89.62;98319.75;5039476;28;20189;-61
2022/06/05 01:10:49;;;;;;;5.78;4.70;;;;;;;21.40;91.96;98315.69;5048117;28;20574;-61
2022/06/05 01:13:23;;;;;;;7.40;4.78;;;;;;;21.50;91.49;98322.34;5039013;28;20877;-61
2022/06/05 01:15:56;;;;;;;7.35;5.38;;;;;;;21.63;90.00;98321.78;5041311;28;20714;-60
2022/06/05 01:18:21;;;;;;;7.68;4.72;;;;;;;21.82;89.02;98319.50;5038985;28;20174;-61
2022/06/05 01:21:05;;;;;;;5.05;4.55;;;;;;;21.94;87.95;98312.81;5039444;28;20616;-60
2022/06/05 01:23:43;;;;;;;8.32;5.28;;;;;;;21.68;89.60;98311.56;5041873;28;20181;-60
2022/06/05 01:26:18;;;;;;;5.97;4.75;;;;;;;21.57;90.79;98314.56;5043686;28;20181;-60
2022/06/05 01:29:18;;;;;;;5.70;5.15;;;;;;;21.56;90.93;98312.94;5034087;28;20181;-60
2022/06/05 01:31:45;;;;;;;9.48;5.57;;;;;;;21.75;89.59;98312.50;5037324;28;20188;-60
2022/06/05 01:34:54;;;;;;;7.07;5.28;;;;;;;21.77;89.27;98315.75;5039026;28;20199;-60
2022/06/05 01:37:42;;;;;;;5.97;4.93;;;;;;;21.93;87.83;98316.47;5041243;28;20197;-60
2022/06/05 01:40:22;;;;;;;5.00;4.20;;;;;;;22.06;88.11;98321.09;5038915;28;20188;-60
2022/06/05 01:42:52;;;;;;;8.57;5.72;;;;;;;21.97;88.07;98319.56;5038697;28;20173;-60
2022/06/05 01:45:23;;;;;;;5.05;4.38;;;;;;;21.60;91.70;98324.75;5046415;28;20295;-60
2022/06/05 01:47:53;;;;;;;5.85;5.00;;;;;;;21.47;92.76;98321.88;5044978;28;20177;-60
2022/06/05 01:50:26;;;;;;;5.88;5.38;;;;;;;21.22;95.53;98323.03;5045775;28;20196;-60
2022/06/05 01:53:08;;;;;;;9.02;5.20;;;;;;;21.08;97.58;98324.59;5026614;28;20208;-60
2022/06/05 01:55:40;;;;;;;8.38;4.97;;;;;;;21.05;98.12;98327.56;5019104;28;20238;-60
2022/06/05 01:58:09;;;;;;;8.18;5.28;;;;;;;21.11;97.80;98336.59;5020871;28;20744;-60
2022/06/05 02:00:35;;;;;;;6.45;5.22;;;;;;;20.99;99.99;98335.34;5036677;28;20243;-60
2022/06/05 02:03:10;;;;;;;6.07;5.28;;;;;;;21.10;98.89;98334.94;5042070;28;20255;-60
2022/06/05 02:05:45;;;;;;;7.45;5.15;;;;;;;21.07;99.34;98330.03;5045889;28;20176;-60
2022/06/05 02:08:33;;;;;;;6.50;5.85;;;;;;;21.08;99.61;98340.38;5048699;28;20746;-60
2022/06/05 02:10:58;;;;;;;9.52;5.68;;;;;;;21.26;98.17;98337.47;5039354;28;20228;-60
2022/06/05 02:13:24;;;;;;;7.30;5.55;;;;;;;21.15;98.60;98325.53;5045060;28;20689;-61
2022/06/05 02:15:50;;;;;;;6.20;5.10;;;;;;;21.31;95.08;98319.34;5037923;28;21098;-60
2022/06/05 02:18:15;;;;;;;6.82;5.97;;;;;;;21.30;93.85;98310.66;5039798;28;20268;-60
2022/06/05 02:20:44;;;;;;;6.03;5.45;;;;;;;21.43;94.65;98320.59;5036178;28;20281;-60
2022/06/05 02:23:18;;;;;;;7.10;5.85;;;;;;;21.40;94.27;98310.41;5039079;28;20177;-60
2022/06/05 02:25:44;;;;;;;9.32;6.10;;;;;;;21.41;95.11;98314.69;5039696;28;20230;-60
2022/06/05 02:28:14;;;;;;;7.80;6.05;;;;;;;21.52;94.82;98327.44;5032857;28;20616;-60
2022/06/05 02:31:02;;;;;;;8.20;5.70;;;;;;;21.63;93.29;98329.69;5045414;28;20596;-60
2022/06/05 02:33:40;;;;;;;8.80;6.25;;;;;;;21.46;94.88;98325.50;5039705;28;20591;-60
2022/06/05 02:36:12;;;;;;;9.48;6.00;;;;;;;21.41;94.97;98317.31;5040414;28;20690;-60
2022/06/05 02:39:03;;;;;;;7.70;5.97;;;;;;;21.30;97.12;98309.81;5038472;28;20185;-60
2022/06/05 02:41:54;;;;;;;7.32;6.50;;;;;;;21.39;96.98;98316.69;5039047;28;20181;-60
2022/06/05 02:44:47;;;;;;;6.85;5.95;;;;;;;21.49;96.42;98317.25;5034870;28;20225;-60
2022/06/05 02:47:30;;;;;;;7.22;6.53;;;;;;;21.35;97.64;98315.38;5038051;28;20253;-61
2022/06/05 02:50:06;;;;;;;7.97;5.63;;;;;;;21.40;97.49;98320.94;5039734;28;20212;-61
2022/06/05 02:52:33;;;;;;;8.43;5.30;;;;;;;20.96;98.83;98288.31;5041742;28;20203;-64
2022/06/05 02:55:06;;;;;;;6.25;5.10;;;;;;;21.21;94.10;98308.25;5041756;28;20273;-60
2022/06/05 02:57:32;;;;;;;5.13;4.72;;;;;;;21.32;89.96;98299.97;5018297;28;20238;-60
2022/06/05 02:59:57;;;;;;;6.53;5.20;;;;;;;21.27;92.18;98299.66;5017518;28;20182;-61
2022/06/05 03:05:07;;;;;;;6.75;5.05;;;;;;;21.39;88.05;98311.41;5041164;28;20180;-60
2022/06/05 03:07:33;;;;;;;5.50;4.88;;;;;;;21.44;88.03;98324.88;5034696;28;20182;-59
2022/06/05 03:09:58;;;;;;;6.07;5.43;;;;;;;21.37;91.58;98326.56;5040796;28;20181;-60
2022/06/05 03:12:24;;;;;;;6.50;4.75;;;;;;;21.39;91.51;98328.00;5045292;28;20204;-60
2022/06/05 03:14:50;;;;;;;6.50;5.07;;;;;;;21.55;93.30;98340.25;5041558;28;20208;-60
2022/06/05 03:17:15;;;;;;;7.82;5.18;;;;;;;21.71;94.57;98338.38;5033289;28;20190;-59
2022/06/05 03:19:42;;;;;;;7.82;5.43;;;;;;;21.71;95.31;98342.81;5017190;28;20220;-60
2022/06/05 03:22:07;;;;;;;8.45;5.32;;;;;;;21.74;95.38;98339.84;5018731;28;20196;-61
2022/06/05 03:24:33;;;;;;;5.85;5.32;;;;;;;21.69;96.26;98329.00;5032967;28;20642;-60
2022/06/05 03:26:59;;;;;;;6.20;5.60;;;;;;;21.82;96.42;98324.78;5037586;28;20185;-61
2022/06/05 03:29:24;;;;;;;7.22;5.00;;;;;;;21.90;89.92;98343.16;5037666;28;20177;-60
2022/06/05 03:31:50;;;;;;;5.32;4.82;;;;;;;21.83;87.90;98344.03;5038355;28;20185;-61
2022/06/05 03:34:17;;;;;;;5.07;4.55;;;;;;;21.71;87.54;98327.00;5044383;28;20610;-60
2022/06/05 03:36:43;;;;;;;5.18;4.35;;;;;;;21.62;86.42;98328.03;5038577;28;20189;-60
2022/06/05 03:39:09;;;;;;;5.47;4.72;;;;;;;21.70;86.11;98325.38;5037799;28;20185;-60
2022/06/05 03:41:35;;;;;;;5.75;4.45;;;;;;;21.67;86.53;98312.53;5037268;28;20268;-60
2022/06/05 03:44:01;;;;;;;5.65;5.10;;;;;;;21.75;85.22;98309.84;5040498;28;20354;-60
2022/06/05 03:46:26;;;;;;;4.75;4.38;;;;;;;21.87;81.90;98321.59;5030909;28;20578;-60
2022/06/05 03:48:51;;;;;;;4.85;4.38;;;;;;;21.91;84.32;98330.81;5032519;28;20323;-61
2022/06/05 03:51:19;;;;;;;4.72;4.35;;;;;;;22.05;85.46;98319.47;5041444;28;20181;-61
2022/06/05 03:53:46;;;;;;;6.05;4.80;;;;;;;22.20;85.55;98328.22;5036263;28;20205;-60
2022/06/05 03:56:18;;;;;;;6.55;4.47;;;;;;;22.31;84.37;98331.22;5040503;28;20572;-60
2022/06/05 03:58:44;;;;;;;7.68;4.80;;;;;;;22.36;84.50;98322.78;5039539;28;20280;-60
2022/06/05 04:01:12;;;;;;;5.45;4.95;;;;;;;22.29;89.85;98316.59;5016256;28;20335;-60
2022/06/05 04:03:38;;;;;;;5.72;5.22;;;;;;;22.38;90.23;98315.53;5018060;28;20189;-60
2022/06/05 04:06:09;;;;;;;8.13;4.65;;;;;;;22.46;83.96;98300.47;5030715;28;20174;-61
2022/06/05 04:08:35;;;;;;;4.93;4.40;;;;;;;22.56;82.22;98302.81;5037640;28;20189;-60
2022/06/05 04:11:05;;;;;;;7.68;5.40;;;;;;;22.35;81.39;98266.59;5040479;28;20294;-60
2022/06/05 04:13:31;;;;;;;6.75;4.97;;;;;;;22.68;78.53;98302.16;5039577;28;20754;-60
2022/06/05 04:15:56;;;;;;;4.93;4.13;;;;;;;22.86;76.71;98297.34;5035954;28;20189;-60
2022/06/05 04:18:22;;;;;;;5.53;4.78;;;;;;;23.10;77.09;98296.19;5035579;28;20207;-60
2022/06/05 04:20:47;;;;;;;5.38;4.55;;;;;;;23.10;76.34;98280.34;5040907;28;20877;-60
2022/06/05 04:23:13;;;;;;;7.65;4.90;;;;;;;23.47;75.67;98312.66;5036676;28;20169;-60
2022/06/05 04:25:42;;;;;;;6.15;5.55;;;;;;;23.63;75.00;98301.84;5038532;28;20385;-60
2022/06/05 04:28:08;;;;;;;5.07;4.35;;;;;;;23.75;74.42;98302.97;5034870;28;20271;-60
2022/06/05 04:30:40;;;;;;;4.70;4.40;;;;;;;23.92;73.50;98293.81;5037730;28;20322;-62
2022/06/05 04:33:06;;;;;;;5.22;4.70;;;;;;;24.02;71.90;98296.94;5034639;28;20201;-62
2022/06/05 04:35:32;;;;;;;5.13;4.55;;;;;;;24.17;72.54;98303.75;5040115;28;20188;-61
2022/06/05 04:37:58;;;;;;;6.03;5.00;;;;;;;24.30;70.72;98319.72;5043290;28;20735;-61
2022/06/05 04:40:24;;;;;;;6.05;5.32;;;;;;;24.29;70.77;98325.19;5041695;28;20184;-62
2022/06/05 04:42:49;;;;;;;6.40;5.75;;;;;;;24.42;72.18;98322.63;5036231;28;20181;-61
2022/06/05 04:45:15;;;;;;;7.00;5.60;;;;;;;24.49;73.93;98324.31;5036902;28;21011;-61
2022/06/05 04:47:41;;;;;;;10.60;5.82;;;;;;;24.58;74.50;98318.91;5037970;28;20673;-61
2022/06/05 04:50:07;;;;;;;7.25;5.60;;;;;;;24.74;74.18;98322.84;5035906;28;20185;-62
2022/06/05 04:52:33;;;;;;;7.70;5.25;;;;;;;24.89;73.76;98314.75;5037931;28;20200;-61
2022/06/05 04:54:58;;;;;;;10.52;6.00;;;;;;;25.02;73.71;98313.00;5037627;28;20545;-62
2022/06/05 04:57:24;;;;;;;5.43;4.93;;;;;;;25.14;70.61;98315.91;5035492;28;20217;-61
2022/06/05 04:59:50;;;;;;;6.88;4.85;;;;;;;25.13;70.00;98309.78;5034832;28;20181;-61
2022/06/05 05:02:17;;;;;;;5.35;4.47;;;;;;;25.00;67.30;98290.38;5043639;28;20235;-61
2022/06/05 05:04:42;;;;;;;6.65;4.45;;;;;;;25.06;66.79;98285.09;5034363;28;20196;-62
2022/06/05 05:07:08;;;;;;;4.82;4.30;;;;;;;25.14;67.65;98276.97;5037321;28;20794;-61
2022/06/05 05:09:33;;;;;;;4.65;4.25;;;;;;;25.22;66.63;98282.09;5035100;28;20193;-61
2022/06/05 05:11:58;;;;;;;4.82;4.10;;;;;;;25.14;66.04;98276.97;5042858;28;20727;-61
2022/06/05 05:14:24;;;;;;;8.00;4.00;;;;;;;25.20;66.33;98288.63;5040589;28;20533;-61
2022/06/05 05:16:50;;;;;;;4.30;3.90;;;;;;;25.21;66.60;98288.44;5038491;28;20234;-62
2022/06/05 05:19:16;;;;;;;5.70;4.70;;;;;;;25.33;66.92;98281.56;5037185;28;20177;-61
2022/06/05 05:21:42;;;;;;;8.27;4.80;;;;;;;25.46;68.18;98292.16;5034993;28;20572;-62
2022/06/05 05:24:08;;;;;;;4.90;4.47;;;;;;;25.58;67.20;98290.56;5026145;28;20189;-61
2022/06/05 05:26:34;;;;;;;5.05;4.60;;;;;;;25.74;66.12;98284.88;5016201;28;20655;-61
2022/06/05 05:29:01;;;;;;;6.78;4.75;;;;;;;25.76;67.00;98285.47;5019148;28;20185;-61
2022/06/05 05:31:32;;;;;;;10.10;4.88;;;;;;;25.82;66.81;98292.59;5032714;28;20188;-61
2022/06/05 05:33:59;;;;;;;5.93;4.60;;;;;;;25.87;66.49;98284.03;5034545;28;20627;-61
2022/06/05 05:36:25;;;;;;;10.75;5.95;;;;;;;25.97;65.94;98289.78;5030238;28;20757;-61
2022/06/05 05:44:21;;;;;;;6.97;4.80;;;;;;;25.76;63.38;98280.16;5023617;28;20208;-61
2022/06/05 05:46:47;;;;;;;4.30;4.00;;;;;;;25.91;63.42;98280.81;5018451;28;20216;-61
2022/06/05 05:49:14;;;;;;;6.25;4.47;;;;;;;25.93;62.63;98276.13;5020955;28;20271;-61
2022/06/05 05:51:40;;;;;;;7.45;4.95;;;;;;;25.92;63.01;98279.81;5031366;28;20182;-62
2022/06/05 05:54:06;;;;;;;9.18;4.68;;;;;;;25.98;63.07;98276.31;5033819;28;20204;-62
2022/06/05 05:56:32;;;;;;;6.30;4.53;;;;;;;25.98;63.38;98278.97;5047889;28;20200;-61
2022/06/05 05:58:58;;;;;;;5.60;4.47;;;;;;;26.13;63.51;98278.75;5040041;28;20197;-61
2022/06/05 06:01:24;;;;;;;6.60;4.30;;;;;;;26.07;62.37;98277.72;5035364;28;20181;-61
2022/06/05 06:03:51;;;;;;;5.03;4.38;;;;;;;26.19;62.51;98294.66;5033036;28;20213;-61
2022/06/05 06:06:22;;;;;;;6.60;4.43;;;;;;;26.28;63.34;98288.13;5038277;28;20185;-61
2022/06/05 06:08:47;;;;;;;6.38;4.85;;;;;;;26.37;63.69;98286.88;5039116;28;21319;-61
2022/06/05 06:11:13;;;;;;;7.25;4.57;;;;;;;26.38;63.14;98291.16;5042243;28;20173;-61
2022/06/05 06:13:38;;;;;;;8.40;4.68;;;;;;;26.35;63.13;98294.22;5037332;28;20208;-61
2022/06/05 06:16:04;;;;;;;5.47;4.95;;;;;;;26.48;62.73;98294.19;5033354;28;20643;-62
2022/06/05 06:18:29;;;;;;;6.88;5.00;;;;;;;26.58;63.64;98299.13;5043932;28;20264;-61
2022/06/05 06:20:54;;;;;;;9.27;6.05;;;;;;;26.42;64.71;98300.31;5038703;28;20238;-61
2022/06/05 06:23:20;;;;;;;8.75;6.70;;;;;;;26.47;66.95;98292.56;5044600;28;20718;-63
2022/06/05 06:25:45;;;;;;;8.00;5.82;;;;;;;26.62;67.44;98284.38;5036268;28;20194;-63
2022/06/05 06:28:11;;;;;;;8.00;5.80;;;;;;;26.72;66.90;98279.47;5018606;28;20270;-62
2022/06/05 06:30:37;;;;;;;6.13;5.53;;;;;;;26.83;66.48;98276.94;5020053;28;20963;-62
2022/06/05 06:33:03;;;;;;;9.68;6.13;;;;;;;26.87;66.38;98267.53;5029447;28;20324;-63
2022/06/05 06:35:28;;;;;;;6.93;6.18;;;;;;;27.00;66.00;98272.00;5041657;28;20784;-62
2022/06/05 06:37:54;;;;;;;9.15;6.25;;;;;;;27.08;65.42;98269.09;5040188;28;20186;-62
2022/06/05 06:40:21;;;;;;;10.25;6.00;;;;;;;27.12;65.28;98270.28;5042055;28;20189;-62
2022/06/05 06:42:46;;;;;;;10.32;6.68;;;;;;;27.19;65.61;98268.44;5038172;28;20182;-62
2022/06/05 06:45:12;;;;;;;7.88;6.32;;;;;;;27.21;64.96;98272.53;5037373;28;20181;-63
2022/06/05 06:47:37;;;;;;;10.63;6.45;;;;;;;27.32;65.22;98277.16;5030495;28;20189;-62
2022/06/05 06:50:04;;;;;;;8.50;6.53;;;;;;;27.37;64.61;98280.00;5017963;28;20182;-62
2022/06/05 06:52:30;;;;;;;11.02;7.05;;;;;;;27.46;64.49;98276.03;5019784;28;20711;-62
2022/06/05 06:54:55;;;;;;;7.50;6.75;;;;;;;27.53;64.04;98274.13;5036153;28;20666;-62
2022/06/05 06:57:21;;;;;;;8.38;6.07;;;;;;;27.59;63.89;98272.47;5039419;28;20237;-62
2022/06/05 06:59:46;;;;;;;7.28;6.55;;;;;;;27.56;65.15;98267.59;5041567;28;20181;-62
2022/06/05 07:02:11;;;;;;;10.43;6.30;;;;;;;27.62;65.01;98261.41;5040823;28;20411;-62
2022/06/05 07:04:37;;;;;;;8.25;6.28;;;;;;;27.65;64.77;98253.81;5035522;28;20181;-61
2022/06/05 07:07:03;;;;;;;8.27;6.75;;;;;;;27.62;65.54;98250.75;5033444;28;20184;-62
2022/06/05 07:09:28;;;;;;;7.18;6.38;;;;;;;27.48;65.86;98251.91;5021598;28;20181;-62
2022/06/05 07:11:54;;;;;;;7.45;5.90;;;;;;;27.59;65.67;98245.91;5017919;28;20284;-62
2022/06/05 07:14:20;;;;;;;7.63;6.35;;;;;;;27.70;65.38;98251.31;5020884;28;20202;-62
2022/06/05 07:16:45;;;;;;;8.15;6.22;;;;;;;27.76;65.70;98242.47;5044316;28;20185;-62
2022/06/05 07:19:11;;;;;;;13.52;7.00;;;;;;;27.86;65.52;98236.72;5042513;28;20181;-62
2022/06/05 07:21:36;;;;;;;8.43;6.70;;;;;;;27.89;66.26;98239.75;5043506;28;20322;-62
2022/06/05 07:24:02;;;;;;;12.05;6.72;;;;;;;28.04;65.49;98234.88;5038985;28;20205;-61
2022/06/05 07:26:30;;;;;;;8.85;6.55;;;;;;;28.07;65.83;98237.13;5047328;28;20192;-62
2022/06/05 07:28:57;;;;;;;8.15;6.43;;;;;;;28.18;65.03;98236.41;5039666;28;20209;-62
2022/06/05 07:31:26;;;;;;;7.82;6.05;;;;;;;28.28;65.04;98228.69;5017118;28;20192;-62
2022/06/05 07:33:51;;;;;;;9.35;5.45;;;;;;;28.46;60.00;98234.06;5018245;28;20263;-62
2022/06/05 07:36:18;;;;;;;5.57;4.72;;;;;;;28.63;58.48;98234.28;5029761;28;20926;-62
2022/06/05 07:38:44;;;;;;;9.68;5.03;;;;;;;28.72;56.05;98228.44;5031983;28;20244;-62
2022/06/05 07:41:16;;;;;;;6.85;5.30;;;;;;;28.82;56.46;98242.03;5035809;28;20685;-62
2022/06/05 07:43:41;;;;;;;16.73;5.65;;;;;;;28.90;56.75;98236.38;5044000;28;20272;-62
2022/06/05 07:46:06;;;;;;;7.00;5.53;;;;;;;28.98;56.31;98225.44;5042469;28;20264;-62
2022/06/05 07:48:33;;;;;;;10.02;5.10;;;;;;;29.12;56.76;98240.22;5042009;28;20191;-63
2022/06/05 07:56:33;;;;;;;9.77;5.50;;;;;;;29.24;54.25;98235.75;5040155;28;20192;-62
2022/06/05 07:58:58;;;;;;;7.85;5.85;;;;;;;29.32;54.05;98246.06;5037660;28;20197;-62
2022/06/05 08:01:24;;;;;;;7.18;5.20;;;;;;;29.31;54.63;98249.78;5037100;28;20316;-62
2022/06/05 08:03:49;;;;;;;11.95;5.82;;;;;;;29.39;55.54;98248.66;5033429;28;20174;-62
2022/06/05 08:06:15;;;;;;;5.45;4.95;;;;;;;29.48;54.45;98239.28;5034978;28;20268;-62
2022/06/05 08:08:40;;;;;;;8.93;5.78;;;;;;;29.55;52.93;98246.16;5034174;28;20174;-62
2022/06/05 08:11:06;;;;;;;7.15;5.95;;;;;;;29.61;53.02;98250.59;5035973;28;20643;-61
2022/06/05 08:13:32;;;;;;;6.20;4.90;;;;;;;29.63;52.84;98243.19;5035750;28;20201;-62
2022/06/05 08:15:58;;;;;;;7.88;5.75;;;;;;;29.65;53.53;98245.59;5036937;28;20269;-61
2022/06/05 08:18:24;;;;;;;7.55;5.78;;;;;;;29.71;54.21;98240.16;5043078;28;20181;-62
2022/06/05 08:20:49;;;;;;;9.32;5.32;;;;;;;29.69;52.41;98231.59;5038810;28;20185;-62
2022/06/05 08:23:15;;;;;;;9.52;5.60;;;;;;;29.78;53.19;98254.22;5042697;28;20203;-61
2022/06/05 08:25:41;;;;;;;11.30;6.40;;;;;;;29.76;52.53;98242.97;5030683;28;20200;-62
2022/06/05 08:28:08;;;;;;;9.23;5.72;;;;;;;29.80;51.84;98243.31;5046634;28;20213;-62
2022/06/05 08:30:33;;;;;;;7.32;5.88;;;;;;;29.81;51.27;98242.25;5032233;28;20181;-62
2022/06/05 08:32:59;;;;;;;11.80;6.32;;;;;;;29.83;51.42;98240.16;5030530;28;20304;-62
2022/06/05 08:35:24;;;;;;;7.22;6.53;;;;;;;29.87;50.90;98238.69;5016228;28;20173;-61
2022/06/05 08:43:40;;;;;;;7.28;5.78;;;;;;;30.00;50.73;98233.09;5039687;28;20236;-63
2022/06/05 08:46:09;;;;;;;11.85;6.55;;;;;;;30.11;50.79;98238.47;5039915;28;20657;-62
2022/06/05 08:48:38;;;;;;;11.98;6.13;;;;;;;30.18;49.69;98236.50;5046391;28;20181;-62
2022/06/05 08:51:20;;;;;;;11.15;5.97;;;;;;;30.25;49.84;98231.84;5032328;28;20181;-62
2022/06/05 08:54:04;;;;;;;9.85;6.20;;;;;;;30.26;48.71;98238.81;5029213;28;20194;-62
2022/06/05 08:56:39;;;;;;;11.55;5.72;;;;;;;30.32;48.72;98248.56;5016179;28;20184;-65
2022/06/05 08:59:12;;;;;;;8.40;6.10;;;;;;;30.37;48.63;98250.53;5018092;28;20189;-62
2022/06/05 09:01:47;;;;;;;9.15;6.32;;;;;;;30.40;48.94;98250.06;5037471;28;20192;-62
2022/06/05 09:04:18;;;;;;;10.55;6.50;;;;;;;30.43;48.58;98233.56;5036317;28;20203;-62
2022/06/05 09:06:48;;;;;;;8.20;7.40;;;;;;;30.52;49.84;98229.47;5028557;28;20201;-62
2022/06/05 09:09:27;;;;;;;9.57;5.40;;;;;;;30.61;48.33;98241.44;5038656;28;20192;-62
2022/06/05 09:12:09;;;;;;;7.85;6.15;;;;;;;30.68;48.00;98237.63;5028691;28;20177;-62
2022/06/05 09:15:12;;;;;;;10.07;5.32;;;;;;;30.79;47.79;98227.94;5030734;28;20877;-61
2022/06/05 09:17:43;;;;;;;8.40;5.70;;;;;;;30.84;48.05;98236.84;5035961;28;20222;-62
2022/06/05 09:20:13;;;;;;;14.27;5.85;;;;;;;30.78;48.07;98235.13;5037886;28;20181;-62
2022/06/05 09:22:49;;;;;;;9.52;5.82;;;;;;;30.78;47.62;98227.13;5046630;28;20280;-62
2022/06/05 09:25:33;;;;;;;6.63;5.60;;;;;;;30.84;47.31;98236.84;5048764;28;20219;-62
2022/06/05 09:28:24;;;;;;;8.25;5.88;;;;;;;30.92;47.58;98233.81;5040070;28;20646;-61
2022/06/05 09:30:53;;;;;;;8.15;5.80;;;;;;;31.05;47.69;98228.19;5040194;28;20201;-62
2022/06/05 09:33:23;;;;;;;9.40;5.70;;;;;;;31.20;47.04;98231.19;5042064;28;20196;-61
2022/06/05 09:35:56;;;;;;;7.35;5.57;;;;;;;31.27;46.73;98226.50;5036202;28;20185;-61
2022/06/05 09:38:35;;;;;;;7.90;5.43;;;;;;;31.38;45.08;98222.13;5019676;28;20208;-62
2022/06/05 09:41:27;;;;;;;6.38;5.35;;;;;;;31.44;45.49;98221.16;5021199;28;20264;-61
2022/06/05 09:43:53;;;;;;;7.00;5.65;;;;;;;31.51;45.79;98211.09;5040857;28;20713;-62
2022/06/05 09:46:37;;;;;;;8.43;5.50;;;;;;;31.43;44.95;98209.63;5039538;28;20259;-61
2022/06/05 09:49:08;;;;;;;7.25;5.00;;;;;;;31.40;45.36;98203.94;5036789;28;20215;-61
2022/06/05 09:51:36;;;;;;;5.85;5.28;;;;;;;31.45;46.14;98196.84;5035700;28;20184;-61
2022/06/05 09:54:13;;;;;;;10.63;4.78;;;;;;;31.58;45.96;98190.34;5042832;28;20349;-61
2022/06/05 09:59:55;;;;;;;8.57;5.25;;;;;;;31.78;43.00;98196.84;5019271;28;20220;-64
2022/06/05 10:02:22;;;;;;;7.30;4.82;;;;;;;31.87;43.31;98189.22;5022013;28;20265;-62
2022/06/05 10:04:49;;;;;;;9.85;5.10;;;;;;;31.93;43.33;98189.06;5043152;28;20192;-63
2022/06/05 10:07:27;;;;;;;6.07;4.43;;;;;;;32.00;42.88;98195.03;5035197;28;20178;-63
2022/06/05 10:09:53;;;;;;;5.35;4.68;;;;;;;32.01;40.79;98201.22;5037821;28;20213;-62
2022/06/05 10:12:28;;;;;;;7.10;4.65;;;;;;;32.05;41.70;98192.44;5041382;28;20180;-62
2022/06/05 10:15:38;;;;;;;6.75;5.00;;;;;;;32.16;41.71;98170.09;5040273;28;20191;-62
2022/06/05 10:18:16;;;;;;;5.97;4.65;;;;;;;32.21;42.50;98167.50;5036055;28;20229;-62
2022/06/05 10:20:54;;;;;;;7.65;5.18;;;;;;;32.21;43.08;98169.34;5035834;28;20632;-62
2022/06/05 10:23:28;;;;;;;13.38;6.10;;;;;;;32.32;43.30;98171.13;5040244;28;20192;-62
2022/06/05 10:26:13;;;;;;;9.05;4.43;;;;;;;32.29;41.84;98164.41;5039613;28;20249;-62
2022/06/05 10:28:41;;;;;;;9.48;4.95;;;;;;;32.39;42.26;98161.88;5044161;28;20211;-61
2022/06/05 10:31:22;;;;;;;7.82;4.63;;;;;;;32.32;41.86;98166.59;5039592;28;20180;-62
2022/06/05 10:34:12;;;;;;;6.10;4.60;;;;;;;32.36;41.55;98154.31;5034602;28;20201;-62
2022/06/05 10:36:59;;;;;;;6.40;4.78;;;;;;;32.55;42.07;98150.28;5040608;28;20548;-61
2022/06/05 10:39:45;;;;;;;5.50;4.53;;;;;;;32.67;39.28;98150.94;5027757;28;20181;-62
2022/06/05 10:42:23;;;;;;;4.60;4.20;;;;;;;32.74;38.48;98140.81;5018969;28;20940;-62
2022/06/05 10:45:04;;;;;;;6.75;3.88;;;;;;;32.89;37.17;98141.03;5026867;28;20213;-62
2022/06/05 10:47:39;;;;;;;5.82;3.70;;;;;;;33.02;36.39;98143.28;5040366;28;20725;-62
2022/06/05 10:50:21;;;;;;;8.05;3.75;;;;;;;33.20;35.96;98140.22;5040014;28;20184;-62
2022/06/05 10:53:05;;;;;;;5.32;3.80;;;;;;;33.39;36.41;98135.34;5030532;28;20197;-63
2022/06/05 10:56:01;;;;;;;9.75;4.05;;;;;;;33.63;35.74;98140.06;5040470;28;20684;-63
2022/06/05 10:58:35;;;;;;;8.98;4.13;;;;;;;33.73;34.99;98128.56;5036542;28;20210;-62
2022/06/05 11:01:12;;;;;;;3.88;3.47;;;;;;;33.96;34.06;98136.25;5020421;28;20265;-62
2022/06/05 11:03:53;;;;;;;6.20;3.50;;;;;;;34.02;34.32;98127.97;5018610;28;20850;-62
2022/06/05 11:06:25;;;;;;;8.98;3.60;;;;;;;33.90;33.92;98123.88;5031864;28;20554;-62
2022/06/05 11:09:15;;;;;;;6.20;3.25;;;;;;;33.63;33.33;98123.94;5040697;28;20200;-62
2022/06/05 11:14:39;;;;;;;3.08;2.72;;;;;;;33.57;32.42;98116.13;5041261;28;20223;-63
2022/06/05 11:17:22;;;;;;;4.43;3.05;;;;;;;33.77;33.07;98129.72;5038570;28;20173;-62
2022/06/05 11:20:05;;;;;;;3.05;2.85;;;;;;;33.88;32.71;98134.91;5037748;28;20243;-62
2022/06/05 11:22:32;;;;;;;4.43;3.17;;;;;;;33.99;32.35;98120.44;5016959;28;20189;-63
2022/06/05 11:25:24;;;;;;;4.72;3.30;;;;;;;34.14;32.27;98114.31;5033683;28;20837;-63
2022/06/05 11:28:14;;;;;;;6.03;3.42;;;;;;;34.33;32.34;98127.06;5041869;28;20184;-63
2022/06/05 11:31:09;;;;;;;7.20;3.60;;;;;;;34.47;32.77;98120.13;5033986;28;20176;-63
2022/06/05 11:33:50;;;;;;;5.93;3.70;;;;;;;34.69;33.11;98109.97;5042271;28;20197;-62
2022/06/05 11:37:04;;;;;;;5.50;3.95;;;;;;;34.94;32.73;98111.91;5033064;28;20196;-63
2022/06/05 11:39:42;;;;;;;6.00;3.53;;;;;;;35.16;31.70;98126.75;5036523;28;20595;-62
2022/06/05 11:42:34;;;;;;;4.68;3.22;;;;;;;35.02;31.12;98133.72;5037488;28;20688;-62
2022/06/05 11:45:36;;;;;;;5.38;3.03;;;;;;;34.99;31.27;98120.81;5036900;28;20173;-62
2022/06/05 11:48:23;;;;;;;4.32;3.40;;;;;;;35.11;31.95;98121.38;5035198;28;20189;-62
2022/06/05 11:51:01;;;;;;;8.75;3.55;;;;;;;35.17;31.17;98114.09;5043405;28;20545;-62
2022/06/05 11:53:44;;;;;;;6.63;3.72;;;;;;;34.98;31.25;98116.50;5044125;28;20188;-62
2022/06/05 11:56:29;;;;;;;6.65;3.83;;;;;;;35.10;31.91;98109.00;5043381;28;20610;-62
2022/06/05 11:59:16;;;;;;;4.88;4.13;;;;;;;35.32;31.39;98117.63;5031357;28;20285;-62
2022/06/05 12:01:50;;;;;;;3.20;2.80;;;;;;;35.45;31.17;98108.19;5042796;28;20177;-62
2022/06/05 12:04:47;;;;;;;6.13;3.20;;;;;;;35.48;30.50;98119.22;5037155;28;20189;-62
2022/06/05 12:07:14;;;;;;;5.00;2.67;;;;;;;35.31;30.09;98105.25;5037717;28;20842;-61
2022/06/05 12:10:01;;;;;;;6.20;2.97;;;;;;;35.45;30.95;98108.19;5038834;28;20224;-61
2022/06/05 12:12:35;;;;;;;3.70;2.80;;;;;;;35.57;30.79;98106.84;5045996;28;20685;-61
2022/06/05 12:15:17;;;;;;;6.75;3.30;;;;;;;35.71;29.89;98102.53;5040246;28;20265;-61
2022/06/05 12:17:55;;;;;;;9.02;3.33;;;;;;;35.93;29.59;98100.31;5043255;28;21030;-61
2022/06/05 12:20:34;;;;;;;3.95;2.60;;;;;;;36.17;28.75;98092.44;5035939;28;20539;-61